sensor_id;sensor_type;location;lat;lon;timestamp;temperature;humidity
22364;DHT22;11349;53.412;-1.328;2024-03-02T00:00:08;2.10;99.90
22364;DHT22;11349;53.412;-1.328;2024-03-02T00:02:45;2.10;99.90
22364;DHT22;11349;53.412;-1.328;2024-03-02T00:05:12;2.30;99.90
22364;DHT22;11349;53.412;-1.328;2024-03-02T00:07:42;2.30;99.90
22364;DHT22;11349;53.412;-1.328;2024-03-02T00:10:19;2.40;99.90
22364;DHT22;11349;53.412;-1.328;2024-03-02T00:12:47;2.40;99.90
22364;DHT22;11349;53.412;-1.328;2024-03-02T00:15:47;2.50;99.90
22364;DHT22;11349;53.412;-1.328;2024-03-02T00:18:34;2.50;99.90
22364;DHT22;11349;53.412;-1.328;2024-03-02T00:21:01;2.60;99.90
22364;DHT22;11349;53.412;-1.328;2024-03-02T00:23:30;2.60;99.90
22364;DHT22;11349;53.412;-1.328;2024-03-02T00:25:59;2.70;99.90
22364;DHT22;11349;53.412;-1.328;2024-03-02T00:28:34;2.70;99.90
22364;DHT22;11349;53.412;-1.328;2024-03-02T00:31:05;2.70;99.90
22364;DHT22;11349;53.412;-1.328;2024-03-02T00:33:42;2.70;99.90
22364;DHT22;11349;53.412;-1.328;2024-03-02T00:36:09;2.70;99.90
22364;DHT22;11349;53.412;-1.328;2024-03-02T00:38:46;2.70;99.90
22364;DHT22;11349;53.412;-1.328;2024-03-02T00:41:31;2.70;99.90
22364;DHT22;11349;53.412;-1.328;2024-03-02T00:46:24;2.70;99.90
22364;DHT22;11349;53.412;-1.328;2024-03-02T00:48:54;2.80;99.90
22364;DHT22;11349;53.412;-1.328;2024-03-02T00:51:25;2.80;99.90
22364;DHT22;11349;53.412;-1.328;2024-03-02T00:53:53;2.80;99.90
22364;DHT22;11349;53.412;-1.328;2024-03-02T00:56:21;2.80;99.90
22364;DHT22;11349;53.412;-1.328;2024-03-02T00:58:47;2.90;99.90
22364;DHT22;11349;53.412;-1.328;2024-03-02T01:01:13;2.80;99.90
22364;DHT22;11349;53.412;-1.328;2024-03-02T01:03:38;2.90;99.90
22364;DHT22;11349;53.412;-1.328;2024-03-02T01:06:04;2.90;99.90
22364;DHT22;11349;53.412;-1.328;2024-03-02T01:08:31;2.90;99.90
22364;DHT22;11349;53.412;-1.328;2024-03-02T01:10:56;3.00;99.90
22364;DHT22;11349;53.412;-1.328;2024-03-02T01:13:23;3.00;99.90
22364;DHT22;11349;53.412;-1.328;2024-03-02T01:15:49;3.00;99.90
22364;DHT22;11349;53.412;-1.328;2024-03-02T01:18:15;3.00;99.90
22364;DHT22;11349;53.412;-1.328;2024-03-02T01:20:41;3.10;99.90
22364;DHT22;11349;53.412;-1.328;2024-03-02T01:23:06;3.00;99.90
22364;DHT22;11349;53.412;-1.328;2024-03-02T01:25:32;3.10;99.90
22364;DHT22;11349;53.412;-1.328;2024-03-02T01:27:58;3.10;99.90
22364;DHT22;11349;53.412;-1.328;2024-03-02T01:30:24;3.10;99.90
22364;DHT22;11349;53.412;-1.328;2024-03-02T01:32:49;3.10;99.90
22364;DHT22;11349;53.412;-1.328;2024-03-02T01:35:15;3.10;99.90
22364;DHT22;11349;53.412;-1.328;2024-03-02T01:37:41;3.10;99.90
22364;DHT22;11349;53.412;-1.328;2024-03-02T01:40:07;3.20;99.90
22364;DHT22;11349;53.412;-1.328;2024-03-02T01:42:38;3.10;99.90
22364;DHT22;11349;53.412;-1.328;2024-03-02T01:45:05;3.20;99.90
22364;DHT22;11349;53.412;-1.328;2024-03-02T01:47:31;3.20;99.90
22364;DHT22;11349;53.412;-1.328;2024-03-02T01:49:58;3.20;99.90
22364;DHT22;11349;53.412;-1.328;2024-03-02T01:52:24;3.20;99.90
22364;DHT22;11349;53.412;-1.328;2024-03-02T01:54:50;3.20;99.90
22364;DHT22;11349;53.412;-1.328;2024-03-02T01:57:16;3.20;99.90
22364;DHT22;11349;53.412;-1.328;2024-03-02T01:59:42;3.30;99.90
22364;DHT22;11349;53.412;-1.328;2024-03-02T02:02:08;3.30;99.90
22364;DHT22;11349;53.412;-1.328;2024-03-02T02:04:34;3.30;99.90
22364;DHT22;11349;53.412;-1.328;2024-03-02T02:06:59;3.20;99.90
22364;DHT22;11349;53.412;-1.328;2024-03-02T02:09:25;3.20;99.90
22364;DHT22;11349;53.412;-1.328;2024-03-02T02:11:51;3.20;99.90
22364;DHT22;11349;53.412;-1.328;2024-03-02T02:14:17;3.10;99.90
22364;DHT22;11349;53.412;-1.328;2024-03-02T02:16:44;3.10;99.90
22364;DHT22;11349;53.412;-1.328;2024-03-02T02:19:09;3.10;99.90
22364;DHT22;11349;53.412;-1.328;2024-03-02T02:21:36;3.00;99.90
22364;DHT22;11349;53.412;-1.328;2024-03-02T02:24:01;3.00;99.90
22364;DHT22;11349;53.412;-1.328;2024-03-02T02:26:29;3.00;99.90
22364;DHT22;11349;53.412;-1.328;2024-03-02T02:28:55;3.10;99.90
22364;DHT22;11349;53.412;-1.328;2024-03-02T02:31:20;3.10;99.90
22364;DHT22;11349;53.412;-1.328;2024-03-02T02:33:46;3.10;99.90
22364;DHT22;11349;53.412;-1.328;2024-03-02T02:36:12;3.10;99.90
22364;DHT22;11349;53.412;-1.328;2024-03-02T02:38:44;3.10;99.90
22364;DHT22;11349;53.412;-1.328;2024-03-02T02:41:12;3.20;99.90
22364;DHT22;11349;53.412;-1.328;2024-03-02T02:43:38;3.20;99.90
22364;DHT22;11349;53.412;-1.328;2024-03-02T02:46:05;3.20;99.90
22364;DHT22;11349;53.412;-1.328;2024-03-02T02:48:34;3.20;99.90
22364;DHT22;11349;53.412;-1.328;2024-03-02T02:51:00;3.20;99.90
22364;DHT22;11349;53.412;-1.328;2024-03-02T02:53:26;3.20;99.90
22364;DHT22;11349;53.412;-1.328;2024-03-02T02:55:52;3.20;99.90
22364;DHT22;11349;53.412;-1.328;2024-03-02T02:58:17;3.20;99.90
22364;DHT22;11349;53.412;-1.328;2024-03-02T03:00:43;3.20;99.90
22364;DHT22;11349;53.412;-1.328;2024-03-02T03:03:09;3.30;99.90
22364;DHT22;11349;53.412;-1.328;2024-03-02T03:05:34;3.30;99.90
22364;DHT22;11349;53.412;-1.328;2024-03-02T03:08:00;3.30;99.90
22364;DHT22;11349;53.412;-1.328;2024-03-02T03:10:26;3.30;99.90
22364;DHT22;11349;53.412;-1.328;2024-03-02T03:12:53;3.30;99.90
22364;DHT22;11349;53.412;-1.328;2024-03-02T03:15:18;3.30;99.90
22364;DHT22;11349;53.412;-1.328;2024-03-02T03:17:44;3.30;99.90
22364;DHT22;11349;53.412;-1.328;2024-03-02T03:20:11;3.30;99.90
22364;DHT22;11349;53.412;-1.328;2024-03-02T03:22:38;3.20;99.90
22364;DHT22;11349;53.412;-1.328;2024-03-02T03:25:04;3.30;99.90
22364;DHT22;11349;53.412;-1.328;2024-03-02T03:27:30;3.20;99.90
22364;DHT22;11349;53.412;-1.328;2024-03-02T03:29:56;3.20;99.90
22364;DHT22;11349;53.412;-1.328;2024-03-02T03:32:22;3.20;99.90
22364;DHT22;11349;53.412;-1.328;2024-03-02T03:34:47;3.20;99.90
22364;DHT22;11349;53.412;-1.328;2024-03-02T03:37:14;3.20;99.90
22364;DHT22;11349;53.412;-1.328;2024-03-02T03:39:40;3.20;99.90
22364;DHT22;11349;53.412;-1.328;2024-03-02T03:42:06;3.20;99.90
22364;DHT22;11349;53.412;-1.328;2024-03-02T03:44:32;3.20;99.90
22364;DHT22;11349;53.412;-1.328;2024-03-02T03:46:59;3.20;99.90
22364;DHT22;11349;53.412;-1.328;2024-03-02T03:49:26;3.20;99.90
22364;DHT22;11349;53.412;-1.328;2024-03-02T03:51:52;3.20;99.90
22364;DHT22;11349;53.412;-1.328;2024-03-02T03:54:17;3.20;99.90
22364;DHT22;11349;53.412;-1.328;2024-03-02T03:56:43;3.20;99.90
22364;DHT22;11349;53.412;-1.328;2024-03-02T03:59:09;3.10;99.90
22364;DHT22;11349;53.412;-1.328;2024-03-02T04:01:34;3.20;99.90
22364;DHT22;11349;53.412;-1.328;2024-03-02T04:04:00;3.20;99.90
22364;DHT22;11349;53.412;-1.328;2024-03-02T04:06:29;3.20;99.90
22364;DHT22;11349;53.412;-1.328;2024-03-02T04:08:54;3.30;99.90
22364;DHT22;11349;53.412;-1.328;2024-03-02T04:11:20;3.20;99.90
22364;DHT22;11349;53.412;-1.328;2024-03-02T04:13:46;3.20;99.90
22364;DHT22;11349;53.412;-1.328;2024-03-02T04:16:12;3.20;99.90
22364;DHT22;11349;53.412;-1.328;2024-03-02T04:18:37;3.30;99.90
22364;DHT22;11349;53.412;-1.328;2024-03-02T04:21:05;3.30;99.90
22364;DHT22;11349;53.412;-1.328;2024-03-02T04:23:30;3.30;99.90
22364;DHT22;11349;53.412;-1.328;2024-03-02T04:25:56;3.20;99.90
22364;DHT22;11349;53.412;-1.328;2024-03-02T04:28:22;3.20;99.90
22364;DHT22;11349;53.412;-1.328;2024-03-02T04:30:47;3.20;99.90
22364;DHT22;11349;53.412;-1.328;2024-03-02T04:33:13;3.20;99.90
22364;DHT22;11349;53.412;-1.328;2024-03-02T04:35:39;3.20;99.90
22364;DHT22;11349;53.412;-1.328;2024-03-02T04:38:04;3.20;99.90
22364;DHT22;11349;53.412;-1.328;2024-03-02T04:40:30;3.20;99.90
22364;DHT22;11349;53.412;-1.328;2024-03-02T04:42:57;3.20;99.90
22364;DHT22;11349;53.412;-1.328;2024-03-02T04:45:24;3.20;99.90
22364;DHT22;11349;53.412;-1.328;2024-03-02T04:47:50;3.20;99.90
22364;DHT22;11349;53.412;-1.328;2024-03-02T04:50:16;3.10;99.90
22364;DHT22;11349;53.412;-1.328;2024-03-02T04:52:41;3.20;99.90
22364;DHT22;11349;53.412;-1.328;2024-03-02T04:55:07;3.20;99.90
22364;DHT22;11349;53.412;-1.328;2024-03-02T04:57:45;3.20;99.90
22364;DHT22;11349;53.412;-1.328;2024-03-02T05:00:11;3.20;99.90
22364;DHT22;11349;53.412;-1.328;2024-03-02T05:02:38;3.20;99.90
22364;DHT22;11349;53.412;-1.328;2024-03-02T05:05:04;3.30;99.90
22364;DHT22;11349;53.412;-1.328;2024-03-02T05:07:30;3.30;99.90
22364;DHT22;11349;53.412;-1.328;2024-03-02T05:09:55;3.30;99.90
22364;DHT22;11349;53.412;-1.328;2024-03-02T05:12:21;3.30;99.90
22364;DHT22;11349;53.412;-1.328;2024-03-02T05:15:16;3.30;99.90
22364;DHT22;11349;53.412;-1.328;2024-03-02T05:17:42;3.30;99.90
22364;DHT22;11349;53.412;-1.328;2024-03-02T05:20:11;3.30;99.90
22364;DHT22;11349;53.412;-1.328;2024-03-02T05:22:37;3.20;99.90
22364;DHT22;11349;53.412;-1.328;2024-03-02T05:25:04;3.20;99.90
22364;DHT22;11349;53.412;-1.328;2024-03-02T05:27:30;3.20;99.90
22364;DHT22;11349;53.412;-1.328;2024-03-02T05:29:56;3.20;99.90
22364;DHT22;11349;53.412;-1.328;2024-03-02T05:32:23;3.20;99.90
22364;DHT22;11349;53.412;-1.328;2024-03-02T05:34:49;3.20;99.90
22364;DHT22;11349;53.412;-1.328;2024-03-02T05:37:16;3.30;99.90
22364;DHT22;11349;53.412;-1.328;2024-03-02T05:39:42;3.20;99.90
22364;DHT22;11349;53.412;-1.328;2024-03-02T05:42:09;3.20;99.90
22364;DHT22;11349;53.412;-1.328;2024-03-02T05:44:35;3.10;99.90
22364;DHT22;11349;53.412;-1.328;2024-03-02T05:47:01;3.10;99.90
22364;DHT22;11349;53.412;-1.328;2024-03-02T05:49:27;3.10;99.90
22364;DHT22;11349;53.412;-1.328;2024-03-02T05:51:52;3.10;99.90
22364;DHT22;11349;53.412;-1.328;2024-03-02T05:54:18;3.20;99.90
22364;DHT22;11349;53.412;-1.328;2024-03-02T05:56:44;3.20;99.90
22364;DHT22;11349;53.412;-1.328;2024-03-02T05:59:10;3.20;99.90
22364;DHT22;11349;53.412;-1.328;2024-03-02T06:01:47;3.20;99.90
22364;DHT22;11349;53.412;-1.328;2024-03-02T06:04:15;3.20;99.90
22364;DHT22;11349;53.412;-1.328;2024-03-02T06:06:41;3.20;99.90
22364;DHT22;11349;53.412;-1.328;2024-03-02T06:09:07;3.20;99.90
22364;DHT22;11349;53.412;-1.328;2024-03-02T06:11:34;3.20;99.90
22364;DHT22;11349;53.412;-1.328;2024-03-02T06:14:00;3.10;99.90
22364;DHT22;11349;53.412;-1.328;2024-03-02T06:16:25;3.20;99.90
22364;DHT22;11349;53.412;-1.328;2024-03-02T06:18:51;3.20;99.90
22364;DHT22;11349;53.412;-1.328;2024-03-02T06:21:17;3.20;99.90
22364;DHT22;11349;53.412;-1.328;2024-03-02T06:23:44;3.10;99.90
22364;DHT22;11349;53.412;-1.328;2024-03-02T06:26:09;3.20;99.90
22364;DHT22;11349;53.412;-1.328;2024-03-02T06:28:35;3.10;99.90
22364;DHT22;11349;53.412;-1.328;2024-03-02T06:31:02;3.10;99.90
22364;DHT22;11349;53.412;-1.328;2024-03-02T06:33:27;3.10;99.90
22364;DHT22;11349;53.412;-1.328;2024-03-02T06:35:54;3.10;99.90
22364;DHT22;11349;53.412;-1.328;2024-03-02T06:38:20;3.10;99.90
22364;DHT22;11349;53.412;-1.328;2024-03-02T06:40:45;3.10;99.90
22364;DHT22;11349;53.412;-1.328;2024-03-02T06:43:11;3.00;99.90
22364;DHT22;11349;53.412;-1.328;2024-03-02T06:45:37;3.00;99.90
22364;DHT22;11349;53.412;-1.328;2024-03-02T06:48:03;3.10;99.90
22364;DHT22;11349;53.412;-1.328;2024-03-02T06:50:29;3.10;99.90
22364;DHT22;11349;53.412;-1.328;2024-03-02T06:52:55;3.10;99.90
22364;DHT22;11349;53.412;-1.328;2024-03-02T06:55:24;3.10;99.90
22364;DHT22;11349;53.412;-1.328;2024-03-02T06:57:50;3.10;99.90
22364;DHT22;11349;53.412;-1.328;2024-03-02T07:00:17;3.10;99.90
22364;DHT22;11349;53.412;-1.328;2024-03-02T07:02:44;3.10;99.90
22364;DHT22;11349;53.412;-1.328;2024-03-02T07:05:10;3.20;99.90
22364;DHT22;11349;53.412;-1.328;2024-03-02T07:07:36;3.20;99.90
22364;DHT22;11349;53.412;-1.328;2024-03-02T07:10:03;3.20;99.90
22364;DHT22;11349;53.412;-1.328;2024-03-02T07:12:29;3.20;99.90
22364;DHT22;11349;53.412;-1.328;2024-03-02T07:14:54;3.20;99.90
22364;DHT22;11349;53.412;-1.328;2024-03-02T07:17:29;3.20;99.90
22364;DHT22;11349;53.412;-1.328;2024-03-02T07:19:56;3.20;99.90
22364;DHT22;11349;53.412;-1.328;2024-03-02T07:22:25;3.20;99.90
22364;DHT22;11349;53.412;-1.328;2024-03-02T07:24:51;3.20;99.90
22364;DHT22;11349;53.412;-1.328;2024-03-02T07:27:17;3.20;99.90
22364;DHT22;11349;53.412;-1.328;2024-03-02T07:29:43;3.20;99.90
22364;DHT22;11349;53.412;-1.328;2024-03-02T07:32:10;3.20;99.90
22364;DHT22;11349;53.412;-1.328;2024-03-02T07:34:36;3.30;99.90
22364;DHT22;11349;53.412;-1.328;2024-03-02T07:37:03;3.30;99.90
22364;DHT22;11349;53.412;-1.328;2024-03-02T07:39:29;3.20;99.90
22364;DHT22;11349;53.412;-1.328;2024-03-02T07:41:55;3.30;99.90
22364;DHT22;11349;53.412;-1.328;2024-03-02T07:44:21;3.40;99.90
22364;DHT22;11349;53.412;-1.328;2024-03-02T07:46:48;3.40;99.90
22364;DHT22;11349;53.412;-1.328;2024-03-02T07:49:20;3.40;99.90
22364;DHT22;11349;53.412;-1.328;2024-03-02T07:51:45;3.40;99.90
22364;DHT22;11349;53.412;-1.328;2024-03-02T07:54:11;3.40;99.90
22364;DHT22;11349;53.412;-1.328;2024-03-02T07:56:37;3.40;99.90
22364;DHT22;11349;53.412;-1.328;2024-03-02T07:59:03;3.40;99.90
22364;DHT22;11349;53.412;-1.328;2024-03-02T08:01:32;3.50;99.90
22364;DHT22;11349;53.412;-1.328;2024-03-02T08:03:59;3.70;99.90
22364;DHT22;11349;53.412;-1.328;2024-03-02T08:06:28;3.70;99.90
22364;DHT22;11349;53.412;-1.328;2024-03-02T08:08:55;3.80;99.90
22364;DHT22;11349;53.412;-1.328;2024-03-02T08:11:21;3.80;99.90
22364;DHT22;11349;53.412;-1.328;2024-03-02T08:13:47;3.90;99.90
22364;DHT22;11349;53.412;-1.328;2024-03-02T08:16:14;3.80;99.90
22364;DHT22;11349;53.412;-1.328;2024-03-02T08:18:40;3.90;99.90
22364;DHT22;11349;53.412;-1.328;2024-03-02T08:21:06;3.80;99.90
22364;DHT22;11349;53.412;-1.328;2024-03-02T08:23:34;3.80;99.90
22364;DHT22;11349;53.412;-1.328;2024-03-02T08:26:00;3.80;99.90
22364;DHT22;11349;53.412;-1.328;2024-03-02T08:28:26;3.90;99.90
22364;DHT22;11349;53.412;-1.328;2024-03-02T08:30:52;3.90;99.90
22364;DHT22;11349;53.412;-1.328;2024-03-02T08:33:18;4.10;99.90
22364;DHT22;11349;53.412;-1.328;2024-03-02T08:35:43;4.10;99.90
22364;DHT22;11349;53.412;-1.328;2024-03-02T08:38:09;4.20;99.90
22364;DHT22;11349;53.412;-1.328;2024-03-02T08:40:35;4.20;99.90
22364;DHT22;11349;53.412;-1.328;2024-03-02T08:43:01;4.20;99.90
22364;DHT22;11349;53.412;-1.328;2024-03-02T08:45:26;4.30;99.90
22364;DHT22;11349;53.412;-1.328;2024-03-02T08:47:52;4.50;99.90
22364;DHT22;11349;53.412;-1.328;2024-03-02T08:50:18;4.60;99.90
22364;DHT22;11349;53.412;-1.328;2024-03-02T08:52:44;4.60;99.90
22364;DHT22;11349;53.412;-1.328;2024-03-02T08:55:09;4.50;99.90
22364;DHT22;11349;53.412;-1.328;2024-03-02T08:57:37;4.60;99.90
22364;DHT22;11349;53.412;-1.328;2024-03-02T09:00:03;4.70;99.90
22364;DHT22;11349;53.412;-1.328;2024-03-02T09:02:31;4.60;99.90
22364;DHT22;11349;53.412;-1.328;2024-03-02T09:04:57;4.60;99.90
22364;DHT22;11349;53.412;-1.328;2024-03-02T09:07:23;4.70;99.90
22364;DHT22;11349;53.412;-1.328;2024-03-02T09:09:49;4.70;99.90
22364;DHT22;11349;53.412;-1.328;2024-03-02T09:12:15;4.70;99.90
22364;DHT22;11349;53.412;-1.328;2024-03-02T09:14:40;4.60;99.90
22364;DHT22;11349;53.412;-1.328;2024-03-02T09:17:06;4.70;99.90
22364;DHT22;11349;53.412;-1.328;2024-03-02T09:19:33;4.70;99.90
22364;DHT22;11349;53.412;-1.328;2024-03-02T09:21:59;4.70;99.90
22364;DHT22;11349;53.412;-1.328;2024-03-02T09:24:24;4.80;99.90
22364;DHT22;11349;53.412;-1.328;2024-03-02T09:26:50;4.90;99.90
22364;DHT22;11349;53.412;-1.328;2024-03-02T09:29:16;5.00;99.90
22364;DHT22;11349;53.412;-1.328;2024-03-02T09:31:42;5.20;99.90
22364;DHT22;11349;53.412;-1.328;2024-03-02T09:34:08;5.20;99.90
22364;DHT22;11349;53.412;-1.328;2024-03-02T09:36:34;5.30;99.90
22364;DHT22;11349;53.412;-1.328;2024-03-02T09:39:00;5.40;99.90
22364;DHT22;11349;53.412;-1.328;2024-03-02T09:41:25;5.40;99.90
22364;DHT22;11349;53.412;-1.328;2024-03-02T09:43:51;5.40;99.90
22364;DHT22;11349;53.412;-1.328;2024-03-02T09:46:18;5.50;99.90
22364;DHT22;11349;53.412;-1.328;2024-03-02T09:48:45;5.60;99.90
22364;DHT22;11349;53.412;-1.328;2024-03-02T09:51:11;5.50;99.90
22364;DHT22;11349;53.412;-1.328;2024-03-02T09:53:37;5.50;99.90
22364;DHT22;11349;53.412;-1.328;2024-03-02T09:56:03;5.50;99.90
22364;DHT22;11349;53.412;-1.328;2024-03-02T09:58:30;5.50;99.90
22364;DHT22;11349;53.412;-1.328;2024-03-02T10:00:56;5.40;99.90
22364;DHT22;11349;53.412;-1.328;2024-03-02T10:03:26;5.40;99.90
22364;DHT22;11349;53.412;-1.328;2024-03-02T10:05:52;5.30;99.90
22364;DHT22;11349;53.412;-1.328;2024-03-02T10:08:18;5.30;99.90
22364;DHT22;11349;53.412;-1.328;2024-03-02T10:10:44;5.20;99.90
22364;DHT22;11349;53.412;-1.328;2024-03-02T10:13:10;5.30;99.90
22364;DHT22;11349;53.412;-1.328;2024-03-02T10:15:37;5.20;99.90
22364;DHT22;11349;53.412;-1.328;2024-03-02T10:18:04;5.20;99.90
22364;DHT22;11349;53.412;-1.328;2024-03-02T10:20:32;5.20;99.90
22364;DHT22;11349;53.412;-1.328;2024-03-02T10:23:15;5.20;99.90
22364;DHT22;11349;53.412;-1.328;2024-03-02T10:25:42;5.10;99.90
22364;DHT22;11349;53.412;-1.328;2024-03-02T10:28:08;5.20;99.90
22364;DHT22;11349;53.412;-1.328;2024-03-02T10:30:34;5.20;99.90
22364;DHT22;11349;53.412;-1.328;2024-03-02T10:33:02;5.20;99.90
22364;DHT22;11349;53.412;-1.328;2024-03-02T10:35:28;5.20;99.90
22364;DHT22;11349;53.412;-1.328;2024-03-02T10:37:54;5.20;99.90
22364;DHT22;11349;53.412;-1.328;2024-03-02T10:40:23;5.20;99.90
22364;DHT22;11349;53.412;-1.328;2024-03-02T10:42:50;5.20;99.90
22364;DHT22;11349;53.412;-1.328;2024-03-02T10:45:17;5.20;99.90
22364;DHT22;11349;53.412;-1.328;2024-03-02T10:47:46;5.30;99.90
22364;DHT22;11349;53.412;-1.328;2024-03-02T10:50:12;5.30;99.90
22364;DHT22;11349;53.412;-1.328;2024-03-02T10:52:38;5.40;99.90
22364;DHT22;11349;53.412;-1.328;2024-03-02T10:55:09;5.40;99.90
22364;DHT22;11349;53.412;-1.328;2024-03-02T10:57:54;5.50;99.90
22364;DHT22;11349;53.412;-1.328;2024-03-02T11:00:24;5.40;99.90
22364;DHT22;11349;53.412;-1.328;2024-03-02T11:02:56;5.40;99.90
22364;DHT22;11349;53.412;-1.328;2024-03-02T11:05:27;5.40;99.90
22364;DHT22;11349;53.412;-1.328;2024-03-02T11:08:14;5.40;99.90
22364;DHT22;11349;53.412;-1.328;2024-03-02T11:10:58;5.50;99.90
22364;DHT22;11349;53.412;-1.328;2024-03-02T11:13:32;5.60;99.90
22364;DHT22;11349;53.412;-1.328;2024-03-02T11:16:19;5.60;99.90
22364;DHT22;11349;53.412;-1.328;2024-03-02T11:18:47;5.70;99.90
22364;DHT22;11349;53.412;-1.328;2024-03-02T11:21:15;5.80;99.90
22364;DHT22;11349;53.412;-1.328;2024-03-02T11:23:42;5.70;99.90
22364;DHT22;11349;53.412;-1.328;2024-03-02T11:26:21;5.70;99.90
22364;DHT22;11349;53.412;-1.328;2024-03-02T11:28:48;5.80;99.90
22364;DHT22;11349;53.412;-1.328;2024-03-02T11:31:14;5.90;99.90
22364;DHT22;11349;53.412;-1.328;2024-03-02T11:33:40;5.90;99.90
22364;DHT22;11349;53.412;-1.328;2024-03-02T11:36:09;6.00;99.90
22364;DHT22;11349;53.412;-1.328;2024-03-02T11:38:35;6.00;99.90
22364;DHT22;11349;53.412;-1.328;2024-03-02T11:41:07;6.00;99.90
22364;DHT22;11349;53.412;-1.328;2024-03-02T11:43:40;6.00;99.90
22364;DHT22;11349;53.412;-1.328;2024-03-02T11:46:07;6.00;99.90
22364;DHT22;11349;53.412;-1.328;2024-03-02T11:48:36;6.10;99.90
22364;DHT22;11349;53.412;-1.328;2024-03-02T11:51:03;6.10;99.90
22364;DHT22;11349;53.412;-1.328;2024-03-02T11:53:29;6.10;99.90
22364;DHT22;11349;53.412;-1.328;2024-03-02T11:55:56;6.20;99.90
22364;DHT22;11349;53.412;-1.328;2024-03-02T11:58:21;6.20;99.90
22364;DHT22;11349;53.412;-1.328;2024-03-02T12:00:56;6.40;99.90
22364;DHT22;11349;53.412;-1.328;2024-03-02T12:03:23;6.30;99.90
22364;DHT22;11349;53.412;-1.328;2024-03-02T12:05:52;6.30;99.90
22364;DHT22;11349;53.412;-1.328;2024-03-02T12:08:18;6.30;99.90
22364;DHT22;11349;53.412;-1.328;2024-03-02T12:10:59;6.40;99.90
22364;DHT22;11349;53.412;-1.328;2024-03-02T12:13:25;6.40;99.90
22364;DHT22;11349;53.412;-1.328;2024-03-02T12:15:53;6.50;99.90
22364;DHT22;11349;53.412;-1.328;2024-03-02T12:18:21;6.40;99.90
22364;DHT22;11349;53.412;-1.328;2024-03-02T12:20:49;6.60;99.90
22364;DHT22;11349;53.412;-1.328;2024-03-02T12:23:18;6.60;99.90
22364;DHT22;11349;53.412;-1.328;2024-03-02T12:25:44;6.70;99.90
22364;DHT22;11349;53.412;-1.328;2024-03-02T12:28:10;6.80;99.90
22364;DHT22;11349;53.412;-1.328;2024-03-02T12:30:36;6.80;99.90
22364;DHT22;11349;53.412;-1.328;2024-03-02T12:33:03;6.90;99.90
22364;DHT22;11349;53.412;-1.328;2024-03-02T12:35:29;6.90;99.90
22364;DHT22;11349;53.412;-1.328;2024-03-02T12:37:55;6.90;99.90
22364;DHT22;11349;53.412;-1.328;2024-03-02T12:40:21;6.70;99.90
22364;DHT22;11349;53.412;-1.328;2024-03-02T12:42:48;6.80;99.90
22364;DHT22;11349;53.412;-1.328;2024-03-02T12:45:16;6.90;99.90
22364;DHT22;11349;53.412;-1.328;2024-03-02T12:47:42;6.80;99.90
22364;DHT22;11349;53.412;-1.328;2024-03-02T12:50:09;7.10;99.90
22364;DHT22;11349;53.412;-1.328;2024-03-02T12:52:35;7.00;99.90
22364;DHT22;11349;53.412;-1.328;2024-03-02T12:55:03;7.10;99.90
22364;DHT22;11349;53.412;-1.328;2024-03-02T12:57:31;7.00;99.90
22364;DHT22;11349;53.412;-1.328;2024-03-02T13:00:05;7.10;99.90
22364;DHT22;11349;53.412;-1.328;2024-03-02T13:02:35;7.30;99.90
22364;DHT22;11349;53.412;-1.328;2024-03-02T13:05:01;7.40;99.90
22364;DHT22;11349;53.412;-1.328;2024-03-02T13:07:27;7.20;99.90
22364;DHT22;11349;53.412;-1.328;2024-03-02T13:09:55;7.20;99.90
22364;DHT22;11349;53.412;-1.328;2024-03-02T13:12:22;7.30;99.90
22364;DHT22;11349;53.412;-1.328;2024-03-02T13:14:52;7.30;99.90
22364;DHT22;11349;53.412;-1.328;2024-03-02T13:17:18;7.30;99.90
22364;DHT22;11349;53.412;-1.328;2024-03-02T13:20:10;7.40;99.90
22364;DHT22;11349;53.412;-1.328;2024-03-02T13:22:36;7.60;99.90
22364;DHT22;11349;53.412;-1.328;2024-03-02T13:25:02;7.70;99.90
22364;DHT22;11349;53.412;-1.328;2024-03-02T13:27:31;7.50;99.90
22364;DHT22;11349;53.412;-1.328;2024-03-02T13:29:57;7.50;99.90
22364;DHT22;11349;53.412;-1.328;2024-03-02T13:32:24;7.60;99.90
22364;DHT22;11349;53.412;-1.328;2024-03-02T13:34:51;7.60;99.90
22364;DHT22;11349;53.412;-1.328;2024-03-02T13:37:17;7.50;99.90
22364;DHT22;11349;53.412;-1.328;2024-03-02T13:39:43;7.60;99.90
22364;DHT22;11349;53.412;-1.328;2024-03-02T13:42:12;7.60;99.90
22364;DHT22;11349;53.412;-1.328;2024-03-02T13:44:40;7.60;99.90
22364;DHT22;11349;53.412;-1.328;2024-03-02T13:47:07;7.40;99.90
22364;DHT22;11349;53.412;-1.328;2024-03-02T13:49:33;7.30;99.90
22364;DHT22;11349;53.412;-1.328;2024-03-02T13:52:00;7.50;99.90
22364;DHT22;11349;53.412;-1.328;2024-03-02T13:54:29;7.30;99.90
22364;DHT22;11349;53.412;-1.328;2024-03-02T13:56:56;7.70;99.90
22364;DHT22;11349;53.412;-1.328;2024-03-02T13:59:23;7.80;99.90
22364;DHT22;11349;53.412;-1.328;2024-03-02T14:01:49;7.60;99.90
22364;DHT22;11349;53.412;-1.328;2024-03-02T14:04:15;7.50;99.90
22364;DHT22;11349;53.412;-1.328;2024-03-02T14:06:43;7.90;99.90
22364;DHT22;11349;53.412;-1.328;2024-03-02T14:09:09;7.90;99.90
22364;DHT22;11349;53.412;-1.328;2024-03-02T14:11:34;7.70;99.90
22364;DHT22;11349;53.412;-1.328;2024-03-02T14:14:01;7.80;99.90
22364;DHT22;11349;53.412;-1.328;2024-03-02T14:16:28;7.80;99.90
22364;DHT22;11349;53.412;-1.328;2024-03-02T14:18:53;7.70;99.90
22364;DHT22;11349;53.412;-1.328;2024-03-02T14:21:19;7.80;99.90
22364;DHT22;11349;53.412;-1.328;2024-03-02T14:23:45;7.70;99.90
22364;DHT22;11349;53.412;-1.328;2024-03-02T14:26:10;7.80;99.90
22364;DHT22;11349;53.412;-1.328;2024-03-02T14:28:36;7.90;99.90
22364;DHT22;11349;53.412;-1.328;2024-03-02T14:31:02;7.80;99.90
22364;DHT22;11349;53.412;-1.328;2024-03-02T14:33:28;7.80;99.90
22364;DHT22;11349;53.412;-1.328;2024-03-02T14:35:53;7.90;99.90
22364;DHT22;11349;53.412;-1.328;2024-03-02T14:38:20;7.90;99.90
22364;DHT22;11349;53.412;-1.328;2024-03-02T14:40:45;8.00;99.90
22364;DHT22;11349;53.412;-1.328;2024-03-02T14:43:11;8.10;99.90
22364;DHT22;11349;53.412;-1.328;2024-03-02T14:45:37;8.50;99.90
22364;DHT22;11349;53.412;-1.328;2024-03-02T14:48:03;9.50;99.90
22364;DHT22;11349;53.412;-1.328;2024-03-02T14:50:29;9.80;99.90
22364;DHT22;11349;53.412;-1.328;2024-03-02T14:52:55;9.70;99.90
22364;DHT22;11349;53.412;-1.328;2024-03-02T14:55:23;9.50;99.90
22364;DHT22;11349;53.412;-1.328;2024-03-02T14:57:49;9.00;99.90
22364;DHT22;11349;53.412;-1.328;2024-03-02T15:00:15;8.40;99.90
22364;DHT22;11349;53.412;-1.328;2024-03-02T15:02:41;8.00;99.90
22364;DHT22;11349;53.412;-1.328;2024-03-02T15:05:07;8.60;99.90
22364;DHT22;11349;53.412;-1.328;2024-03-02T15:07:33;8.50;99.90
22364;DHT22;11349;53.412;-1.328;2024-03-02T15:09:59;8.90;99.90
22364;DHT22;11349;53.412;-1.328;2024-03-02T15:12:25;9.60;99.90
22364;DHT22;11349;53.412;-1.328;2024-03-02T15:14:50;10.20;99.90
22364;DHT22;11349;53.412;-1.328;2024-03-02T15:17:17;10.40;99.90
22364;DHT22;11349;53.412;-1.328;2024-03-02T15:19:44;10.10;99.90
22364;DHT22;11349;53.412;-1.328;2024-03-02T15:22:10;10.40;99.90
22364;DHT22;11349;53.412;-1.328;2024-03-02T15:24:35;10.70;99.90
22364;DHT22;11349;53.412;-1.328;2024-03-02T15:27:02;9.10;99.90
22364;DHT22;11349;53.412;-1.328;2024-03-02T15:29:33;8.40;99.90
22364;DHT22;11349;53.412;-1.328;2024-03-02T15:31:59;8.20;99.90